createdAt,value
2022-08-29T00:02:27.348Z,19.00
2022-08-29T00:05:00.179Z,19.00
2022-08-29T00:07:33.009Z,19.00
2022-08-29T00:10:06.661Z,19.00
2022-08-29T00:12:39.994Z,19.00
2022-08-29T00:15:14.213Z,19.00
2022-08-29T00:17:47.270Z,19.00
2022-08-29T00:20:33.980Z,18.90
2022-08-29T00:23:07.909Z,18.80
2022-08-29T00:25:40.813Z,18.90
2022-08-29T00:28:14.008Z,18.90
2022-08-29T00:30:47.173Z,18.90
2022-08-29T00:33:20.341Z,18.90
2022-08-29T00:35:53.258Z,18.90
2022-08-29T00:38:27.942Z,19.00
2022-08-29T00:41:01.327Z,19.00
2022-08-29T00:43:36.674Z,19.00
2022-08-29T00:46:38.648Z,19.00
2022-08-29T00:49:26.963Z,18.90
2022-08-29T00:52:12.246Z,18.90
2022-08-29T00:54:50.406Z,18.90
2022-08-29T00:57:25.863Z,18.90
2022-08-29T00:59:59.499Z,18.90
2022-08-29T01:02:34.345Z,18.90
2022-08-29T01:05:11.550Z,18.90
2022-08-29T01:07:44.616Z,18.90
2022-08-29T01:10:37.407Z,18.90
2022-08-29T01:13:11.366Z,18.90
2022-08-29T01:18:31.162Z,18.80
2022-08-29T01:21:19.094Z,18.80
2022-08-29T01:24:01.461Z,18.70
2022-08-29T01:26:34.558Z,18.70
2022-08-29T01:29:07.522Z,18.60
2022-08-29T01:31:56.197Z,18.60
2022-08-29T01:34:30.718Z,18.60
2022-08-29T01:37:07.221Z,18.50
2022-08-29T01:39:42.067Z,18.50
2022-08-29T01:42:22.026Z,18.60
2022-08-29T01:44:57.789Z,18.60
2022-08-29T01:47:35.085Z,18.50
2022-08-29T01:50:13.924Z,18.50
2022-08-29T01:52:46.674Z,18.60
2022-08-29T01:55:19.689Z,18.60
2022-08-29T01:57:52.460Z,18.60
2022-08-29T02:00:29.635Z,18.50
2022-08-29T02:03:03.803Z,18.50
2022-08-29T02:05:36.789Z,18.50
2022-08-29T02:08:09.658Z,18.40
2022-08-29T02:10:42.550Z,18.40
2022-08-29T02:13:15.345Z,18.40
2022-08-29T02:15:48.202Z,18.50
2022-08-29T02:18:21.629Z,18.50
2022-08-29T02:20:54.510Z,18.50
2022-08-29T02:23:31.002Z,18.50
2022-08-29T02:26:05.389Z,18.50
2022-08-29T02:28:38.604Z,18.50
2022-08-29T02:31:11.626Z,18.50
2022-08-29T02:33:44.426Z,18.50
2022-08-29T02:36:17.975Z,18.50
2022-08-29T02:38:52.521Z,18.50
2022-08-29T02:41:25.311Z,18.50
2022-08-29T02:43:58.896Z,18.50
2022-08-29T02:46:32.280Z,18.50
2022-08-29T02:49:05.431Z,18.50
2022-08-29T02:51:38.239Z,18.50
2022-08-29T02:54:12.459Z,18.40
2022-08-29T02:56:45.254Z,18.30
2022-08-29T02:59:17.990Z,18.30
2022-08-29T03:01:50.809Z,18.30
2022-08-29T03:04:23.558Z,18.30
2022-08-29T03:06:56.464Z,18.30
2022-08-29T03:09:29.253Z,18.20
2022-08-29T03:12:02.377Z,18.20
2022-08-29T03:14:35.185Z,18.20
2022-08-29T03:17:07.949Z,18.20
2022-08-29T03:19:42.080Z,18.10
2022-08-29T03:22:15.575Z,18.10
2022-08-29T03:24:48.328Z,18.00
2022-08-29T03:27:22.814Z,18.00
2022-08-29T03:29:55.749Z,18.00
2022-08-29T03:32:29.593Z,18.00
2022-08-29T03:35:02.770Z,17.90
2022-08-29T03:37:36.058Z,17.90
2022-08-29T03:40:10.248Z,17.90
2022-08-29T03:42:43.328Z,17.90
2022-08-29T03:45:18.456Z,17.90
2022-08-29T03:47:53.485Z,17.90
2022-08-29T03:50:26.275Z,17.90
2022-08-29T03:52:59.468Z,17.90
2022-08-29T03:55:32.384Z,17.90
2022-08-29T03:58:05.997Z,17.80
2022-08-29T04:00:38.716Z,17.80
2022-08-29T04:03:11.572Z,17.70
2022-08-29T04:05:44.353Z,17.70
2022-08-29T04:08:17.114Z,17.60
2022-08-29T04:10:50.017Z,17.60
2022-08-29T04:13:22.755Z,17.50
2022-08-29T04:15:55.581Z,17.50
2022-08-29T04:18:28.403Z,17.50
2022-08-29T04:21:02.440Z,17.50
2022-08-29T04:23:37.544Z,17.50
2022-08-29T04:26:35.389Z,17.50
2022-08-29T04:29:11.191Z,17.50
2022-08-29T04:31:44.789Z,17.50
2022-08-29T04:34:18.477Z,17.50
2022-08-29T04:36:51.252Z,17.50
2022-08-29T04:39:25.154Z,17.50
2022-08-29T04:41:58.119Z,17.50
2022-08-29T04:44:31.074Z,17.50
2022-08-29T04:47:03.871Z,17.40
2022-08-29T04:49:36.786Z,17.40
2022-08-29T04:52:10.119Z,17.30
2022-08-29T04:54:42.834Z,17.30
2022-08-29T04:57:15.687Z,17.30
2022-08-29T04:59:54.951Z,17.30
2022-08-29T05:02:28.105Z,17.30
2022-08-29T05:05:01.040Z,17.30
2022-08-29T05:07:34.065Z,17.20
2022-08-29T05:10:14.705Z,17.10
2022-08-29T05:12:48.300Z,17.10
2022-08-29T05:15:21.079Z,17.10
2022-08-29T05:17:54.706Z,17.10
2022-08-29T05:20:27.408Z,17.20
2022-08-29T05:23:00.141Z,17.10
2022-08-29T05:25:32.939Z,17.20
2022-08-29T05:28:05.859Z,17.20
2022-08-29T05:30:40.140Z,17.20
2022-08-29T05:33:12.981Z,17.20
2022-08-29T05:35:46.185Z,17.30
2022-08-29T05:38:18.966Z,17.30
2022-08-29T05:40:51.818Z,17.30
2022-08-29T05:43:24.753Z,17.30
2022-08-29T05:46:03.580Z,17.20
2022-08-29T05:48:39.562Z,17.20
2022-08-29T05:51:17.493Z,17.20
2022-08-29T05:53:50.653Z,17.30
2022-08-29T05:56:25.885Z,17.30
2022-08-29T05:58:58.812Z,17.40
2022-08-29T06:01:33.952Z,17.40
2022-08-29T06:04:06.993Z,17.50
2022-08-29T06:06:40.985Z,17.50
2022-08-29T06:09:13.946Z,17.60
2022-08-29T06:11:49.411Z,17.60
2022-08-29T06:14:22.265Z,17.70
2022-08-29T06:16:55.566Z,17.70
2022-08-29T06:19:31.211Z,17.80
2022-08-29T06:22:05.753Z,17.80
2022-08-29T06:24:44.557Z,17.80
2022-08-29T06:27:17.470Z,17.90
2022-08-29T06:29:50.293Z,17.80
2022-08-29T06:32:23.735Z,17.80
2022-08-29T06:34:56.585Z,17.70
2022-08-29T06:37:29.371Z,17.60
2022-08-29T06:40:02.755Z,17.60
2022-08-29T06:42:40.333Z,17.70
2022-08-29T06:45:13.220Z,17.70
2022-08-29T06:47:47.450Z,17.90
2022-08-29T06:50:20.302Z,18.00
2022-08-29T06:52:55.372Z,18.10
2022-08-29T06:55:28.542Z,18.10
2022-08-29T06:58:01.551Z,18.20
2022-08-29T07:00:34.498Z,18.30
2022-08-29T07:03:07.389Z,18.40
2022-08-29T07:05:40.301Z,18.50
2022-08-29T07:08:13.066Z,18.70
2022-08-29T07:10:46.502Z,18.80
2022-08-29T07:13:19.347Z,19.00
2022-08-29T07:15:52.415Z,19.10
2022-08-29T07:18:25.343Z,19.20
2022-08-29T07:20:58.066Z,19.40
2022-08-29T07:23:31.248Z,19.40
2022-08-29T07:26:18.031Z,19.40
2022-08-29T07:28:54.002Z,19.50
2022-08-29T07:31:27.443Z,19.60
2022-08-29T07:34:03.976Z,19.70
2022-08-29T07:36:37.308Z,19.80
2022-08-29T07:39:16.903Z,20.00
2022-08-29T07:41:50.362Z,20.20
2022-08-29T07:44:23.312Z,20.10
2022-08-29T07:46:57.609Z,20.10
2022-08-29T07:49:41.071Z,20.10
2022-08-29T07:52:14.707Z,20.20
2022-08-29T07:54:47.858Z,20.30
2022-08-29T07:57:20.637Z,20.40
2022-08-29T07:59:53.609Z,20.60
2022-08-29T08:02:26.716Z,20.70
2022-08-29T08:04:59.618Z,20.70
2022-08-29T08:07:34.904Z,20.80
2022-08-29T08:10:08.607Z,20.90
2022-08-29T08:12:41.402Z,20.90
2022-08-29T08:15:15.725Z,20.90
2022-08-29T08:17:48.646Z,21.10
2022-08-29T08:20:21.633Z,21.30
2022-08-29T08:22:54.712Z,21.60
2022-08-29T08:25:27.993Z,21.80
2022-08-29T08:28:00.954Z,22.10
2022-08-29T08:30:35.803Z,22.10
2022-08-29T08:33:09.511Z,22.20
2022-08-29T08:35:42.549Z,22.30
2022-08-29T08:38:16.973Z,22.20
2022-08-29T08:41:10.601Z,22.10
2022-08-29T08:44:00.236Z,22.20
2022-08-29T08:46:41.047Z,22.40
2022-08-29T08:49:29.683Z,22.40
2022-08-29T08:52:08.871Z,22.50
2022-08-29T08:54:50.363Z,22.50
2022-08-29T08:57:28.913Z,22.70
2022-08-29T09:00:03.908Z,22.80
2022-08-29T09:02:41.636Z,23.00
2022-08-29T09:05:33.525Z,23.00
2022-08-29T09:08:38.058Z,23.10
2022-08-29T09:11:27.990Z,23.20
2022-08-29T09:14:14.569Z,23.30
2022-08-29T09:16:51.744Z,23.50
2022-08-29T09:19:26.315Z,23.60
2022-08-29T09:22:24.726Z,23.60
2022-08-29T09:25:05.180Z,23.70
2022-08-29T09:27:38.454Z,23.80
2022-08-29T09:30:16.563Z,23.70
2022-08-29T09:32:57.149Z,23.70
2022-08-29T09:35:42.018Z,23.70
2022-08-29T09:38:17.614Z,23.80
2022-08-29T09:40:55.583Z,23.90
2022-08-29T09:43:40.227Z,23.90
2022-08-29T09:46:27.839Z,23.90
2022-08-29T09:49:06.268Z,24.10
2022-08-29T09:51:42.726Z,24.30
2022-08-29T09:54:35.726Z,24.50
2022-08-29T09:57:08.993Z,24.50
2022-08-29T10:00:06.632Z,24.50
2022-08-29T10:02:43.717Z,24.60
2022-08-29T10:05:46.542Z,24.70
2022-08-29T10:08:36.413Z,24.80
2022-08-29T10:11:20.942Z,25.00
2022-08-29T10:14:30.114Z,25.10
2022-08-29T10:17:32.384Z,25.30
2022-08-29T10:20:09.915Z,25.50
2022-08-29T10:22:58.919Z,25.60
2022-08-29T10:25:41.315Z,25.80
2022-08-29T10:28:20.202Z,25.90
2022-08-29T10:31:08.764Z,26.00
2022-08-29T10:34:04.729Z,26.00
2022-08-29T10:36:40.991Z,26.10
2022-08-29T10:39:19.221Z,26.10
2022-08-29T10:42:09.629Z,26.20
2022-08-29T10:45:09.586Z,26.20
2022-08-29T10:47:52.432Z,26.20
2022-08-29T10:50:45.179Z,26.20
2022-08-29T10:53:21.525Z,26.30
2022-08-29T10:56:07.006Z,26.40
2022-08-29T10:58:55.172Z,26.60
2022-08-29T11:01:38.637Z,26.70
2022-08-29T11:04:34.454Z,26.70
2022-08-29T11:07:21.565Z,26.80
2022-08-29T11:09:59.006Z,27.00
2022-08-29T11:12:56.942Z,27.00
2022-08-29T11:15:48.564Z,27.10
2022-08-29T11:18:39.101Z,27.20
2022-08-29T11:21:39.693Z,27.30
2022-08-29T11:24:15.126Z,27.40
2022-08-29T11:27:31.889Z,27.40
2022-08-29T11:30:47.938Z,27.60
2022-08-29T11:33:36.955Z,28.10
2022-08-29T11:36:36.204Z,28.20
2022-08-29T11:39:34.927Z,28.40
2022-08-29T11:42:11.784Z,28.30
2022-08-29T11:44:48.263Z,28.40
2022-08-29T11:47:46.697Z,28.60
2022-08-29T11:53:20.752Z,29.00
2022-08-29T11:56:28.163Z,29.20
2022-08-29T11:59:01.594Z,29.20
2022-08-29T12:01:34.320Z,29.30
2022-08-29T12:04:09.283Z,29.30
2022-08-29T12:06:50.870Z,29.40
2022-08-29T12:09:42.322Z,29.50
2022-08-29T12:12:36.771Z,29.60
2022-08-29T12:18:17.846Z,29.90
2022-08-29T12:20:55.675Z,30.20
2022-08-29T12:23:35.710Z,30.40
2022-08-29T12:26:40.052Z,30.50
2022-08-29T12:29:31.059Z,30.70
2022-08-29T12:32:41.987Z,30.70
2022-08-29T12:36:07.468Z,30.50
2022-08-29T12:39:13.849Z,30.30
2022-08-29T12:42:04.299Z,30.20
2022-08-29T12:44:57.717Z,30.20
2022-08-29T12:47:45.303Z,29.80
2022-08-29T12:50:25.212Z,29.40
2022-08-29T12:53:05.771Z,28.70
2022-08-29T12:55:43.353Z,28.00
2022-08-29T12:58:47.071Z,27.70
2022-08-29T13:01:30.566Z,27.50
2022-08-29T13:04:16.012Z,27.30
2022-08-29T13:07:15.491Z,27.20
2022-08-29T13:09:54.171Z,27.10
2022-08-29T13:12:33.160Z,27.10
2022-08-29T13:15:16.939Z,27.00
2022-08-29T13:17:51.215Z,27.00
2022-08-29T13:20:42.713Z,27.00
2022-08-29T13:23:17.279Z,27.10
2022-08-29T13:26:10.579Z,27.10
2022-08-29T13:28:52.991Z,27.10
2022-08-29T13:31:30.111Z,27.10
2022-08-29T13:34:30.382Z,27.20
2022-08-29T13:37:10.518Z,27.20
2022-08-29T13:39:49.882Z,27.10
2022-08-29T13:42:27.793Z,27.00
2022-08-29T13:45:09.040Z,27.00
2022-08-29T13:47:49.783Z,26.80
2022-08-29T13:50:23.433Z,26.80
2022-08-29T13:52:57.435Z,26.70
2022-08-29T13:55:30.578Z,26.70
2022-08-29T13:58:04.421Z,26.70
2022-08-29T14:00:37.214Z,26.80
2022-08-29T14:03:22.223Z,26.80
2022-08-29T14:05:56.592Z,26.80
2022-08-29T14:08:30.936Z,26.90
2022-08-29T14:11:03.639Z,26.90
2022-08-29T14:13:47.554Z,26.90
2022-08-29T14:16:21.291Z,26.90
2022-08-29T14:18:54.709Z,26.80
2022-08-29T14:21:28.543Z,26.80
2022-08-29T14:24:01.345Z,26.80
2022-08-29T14:26:34.320Z,26.70
2022-08-29T14:29:08.053Z,26.60
2022-08-29T14:31:40.971Z,26.60
2022-08-29T14:34:13.895Z,26.50
2022-08-29T14:36:48.096Z,26.50
2022-08-29T14:39:21.328Z,26.50
2022-08-29T14:41:59.481Z,26.50
2022-08-29T14:44:32.411Z,26.60
2022-08-29T14:47:05.637Z,26.60
2022-08-29T14:49:38.742Z,26.70
2022-08-29T14:52:14.951Z,26.70
2022-08-29T14:54:47.798Z,26.60
2022-08-29T14:57:20.753Z,26.60
2022-08-29T14:59:53.694Z,26.60
2022-08-29T15:02:26.987Z,26.50
2022-08-29T15:04:59.870Z,26.40
2022-08-29T15:07:33.183Z,26.40
2022-08-29T15:10:07.450Z,26.40
2022-08-29T15:12:41.183Z,26.40
2022-08-29T15:15:14.060Z,26.40
2022-08-29T15:17:47.304Z,26.30
2022-08-29T15:20:37.653Z,26.30
2022-08-29T15:23:13.103Z,26.30
2022-08-29T15:25:52.100Z,26.30
2022-08-29T15:28:25.297Z,26.20
2022-08-29T15:30:58.106Z,26.30
2022-08-29T15:33:30.983Z,26.20
2022-08-29T15:36:04.007Z,26.20
2022-08-29T15:38:36.962Z,26.20
2022-08-29T15:41:09.757Z,26.20
2022-08-29T15:43:43.004Z,26.30
2022-08-29T15:46:15.811Z,26.30
2022-08-29T15:48:51.323Z,26.40
2022-08-29T15:51:24.341Z,26.40
2022-08-29T15:53:57.343Z,26.50
2022-08-29T15:56:35.000Z,26.50
2022-08-29T15:59:09.837Z,26.50
2022-08-29T16:01:46.892Z,26.50
2022-08-29T16:04:22.464Z,26.50
2022-08-29T16:06:55.576Z,26.50
2022-08-29T16:09:34.525Z,26.60
2022-08-29T16:12:08.732Z,26.60
2022-08-29T16:17:34.585Z,26.60
2022-08-29T16:20:11.447Z,26.60
2022-08-29T16:22:44.452Z,26.70
2022-08-29T16:25:18.481Z,26.60
2022-08-29T16:27:51.416Z,26.70
2022-08-29T16:30:24.514Z,26.60
2022-08-29T16:32:57.606Z,26.60
2022-08-29T16:35:30.710Z,26.60
2022-08-29T16:38:03.570Z,26.60
2022-08-29T16:40:37.049Z,26.50
2022-08-29T16:43:10.107Z,26.50
2022-08-29T16:45:43.232Z,26.50
2022-08-29T16:48:17.790Z,26.50
2022-08-29T16:50:51.581Z,26.50
2022-08-29T16:53:24.358Z,26.40
2022-08-29T16:55:57.744Z,26.40
2022-08-29T16:58:49.238Z,26.40
2022-08-29T17:01:22.237Z,26.40
2022-08-29T17:03:55.072Z,26.40
2022-08-29T17:06:29.483Z,26.30
2022-08-29T17:09:06.425Z,26.30
2022-08-29T17:11:41.579Z,26.20
2022-08-29T17:14:15.085Z,26.20
2022-08-29T17:16:51.389Z,26.20
2022-08-29T17:19:24.383Z,26.20
2022-08-29T17:21:57.411Z,26.10
2022-08-29T17:24:31.607Z,26.10
2022-08-29T17:27:04.611Z,26.00
2022-08-29T17:29:41.809Z,26.00
2022-08-29T17:32:15.667Z,25.90
2022-08-29T17:34:48.794Z,25.90
2022-08-29T17:37:21.799Z,25.80
2022-08-29T17:39:54.523Z,25.70
2022-08-29T17:42:28.083Z,25.60
2022-08-29T17:45:00.881Z,25.60
2022-08-29T17:47:33.719Z,25.50
2022-08-29T17:50:07.070Z,25.50
2022-08-29T17:52:40.022Z,25.40
2022-08-29T17:55:12.794Z,25.30
2022-08-29T17:57:45.824Z,25.30
2022-08-29T18:00:19.409Z,25.20
2022-08-29T18:02:52.802Z,25.20
2022-08-29T18:05:26.262Z,25.10
2022-08-29T18:07:59.106Z,25.10
2022-08-29T18:10:32.456Z,25.00
2022-08-29T18:13:05.444Z,25.00
2022-08-29T18:15:38.247Z,24.90
2022-08-29T18:18:11.103Z,24.90
2022-08-29T18:20:45.007Z,24.80
2022-08-29T18:23:17.829Z,24.80
2022-08-29T18:25:50.627Z,24.80
2022-08-29T18:28:23.431Z,24.70
2022-08-29T18:30:58.548Z,24.70
2022-08-29T18:33:50.263Z,24.60
2022-08-29T18:36:24.878Z,24.60
2022-08-29T18:38:58.383Z,24.50
2022-08-29T18:41:31.477Z,24.50
2022-08-29T18:44:04.823Z,24.40
2022-08-29T18:46:40.970Z,24.40
2022-08-29T18:49:15.056Z,24.40
2022-08-29T18:51:47.843Z,24.30
2022-08-29T18:54:24.076Z,24.30
2022-08-29T18:56:59.405Z,24.20
2022-08-29T18:59:33.127Z,24.20
2022-08-29T19:02:11.531Z,24.10
2022-08-29T19:04:44.504Z,24.10
2022-08-29T19:07:24.311Z,24.00
2022-08-29T19:09:57.283Z,24.00
2022-08-29T19:12:30.184Z,23.90
2022-08-29T19:15:05.328Z,23.80
2022-08-29T19:17:38.255Z,23.80
2022-08-29T19:20:32.458Z,23.80
2022-08-29T19:23:05.627Z,23.70
2022-08-29T19:25:39.435Z,23.70
2022-08-29T19:28:13.065Z,23.60
2022-08-29T19:30:47.199Z,23.60
2022-08-29T19:33:20.430Z,23.60
2022-08-29T19:35:53.621Z,23.50
2022-08-29T19:38:27.482Z,23.40
2022-08-29T19:41:01.902Z,23.40
2022-08-29T19:43:38.885Z,23.30
2022-08-29T19:46:16.596Z,23.30
2022-08-29T19:48:52.199Z,23.20
2022-08-29T19:51:25.588Z,23.20
2022-08-29T19:54:01.225Z,23.20
2022-08-29T19:56:35.866Z,23.20
2022-08-29T19:59:10.187Z,23.10
2022-08-29T20:01:45.790Z,23.10
2022-08-29T20:04:18.914Z,23.00
2022-08-29T20:06:51.799Z,23.00
2022-08-29T20:09:27.269Z,22.90
2022-08-29T20:12:00.336Z,22.80
2022-08-29T20:14:34.023Z,22.80
2022-08-29T20:17:09.533Z,22.80
2022-08-29T20:19:42.759Z,22.70
2022-08-29T20:22:15.576Z,22.70
2022-08-29T20:24:53.334Z,22.70
2022-08-29T20:27:26.278Z,22.60
2022-08-29T20:29:59.108Z,22.60
2022-08-29T20:32:31.919Z,22.60
2022-08-29T20:35:05.814Z,22.50
2022-08-29T20:37:38.712Z,22.50
2022-08-29T20:40:13.308Z,22.40
2022-08-29T20:42:46.126Z,22.40
2022-08-29T20:45:18.923Z,22.40
2022-08-29T20:47:52.336Z,22.30
2022-08-29T20:50:25.933Z,22.20
2022-08-29T20:53:31.843Z,22.20
2022-08-29T20:56:05.570Z,22.20
2022-08-29T20:58:38.434Z,22.10
2022-08-29T21:01:11.272Z,22.10
2022-08-29T21:04:02.830Z,22.10
2022-08-29T21:06:35.543Z,22.10
2022-08-29T21:09:09.044Z,22.00
2022-08-29T21:11:41.823Z,22.00
2022-08-29T21:14:14.806Z,22.00
2022-08-29T21:16:47.913Z,22.00
2022-08-29T21:19:21.697Z,21.90
2022-08-29T21:21:54.462Z,21.90
2022-08-29T21:24:27.722Z,21.90
2022-08-29T21:27:00.583Z,21.80
2022-08-29T21:29:33.316Z,21.80
2022-08-29T21:32:06.202Z,21.80
2022-08-29T21:34:41.625Z,21.70
2022-08-29T21:37:14.556Z,21.70
2022-08-29T21:39:47.848Z,21.70
2022-08-29T21:42:20.899Z,21.60
2022-08-29T21:44:55.466Z,21.60
2022-08-29T21:47:28.374Z,21.60
2022-08-29T21:50:01.173Z,21.60
2022-08-29T21:52:34.879Z,21.60
2022-08-29T21:55:08.260Z,21.60
2022-08-29T21:57:55.774Z,21.50
2022-08-29T22:00:32.897Z,21.50
2022-08-29T22:03:07.005Z,21.50
2022-08-29T22:05:43.698Z,21.50
2022-08-29T22:08:18.919Z,21.40
2022-08-29T22:10:51.914Z,21.40
2022-08-29T22:13:24.679Z,21.50
2022-08-29T22:16:16.015Z,21.50
2022-08-29T22:18:48.765Z,21.40
2022-08-29T22:21:21.792Z,21.40
2022-08-29T22:23:55.286Z,21.40
2022-08-29T22:26:28.564Z,21.40
2022-08-29T22:29:01.598Z,21.30
2022-08-29T22:31:34.612Z,21.20
2022-08-29T22:34:07.459Z,21.10
2022-08-29T22:36:40.638Z,21.00
2022-08-29T22:39:13.461Z,21.00
2022-08-29T22:41:47.726Z,20.90
2022-08-29T22:47:13.537Z,20.90
2022-08-29T22:49:46.383Z,20.90
2022-08-29T22:52:20.431Z,20.80
2022-08-29T22:54:53.590Z,20.80
2022-08-29T22:57:26.472Z,20.80
2022-08-29T22:59:59.854Z,20.70
2022-08-29T23:02:33.498Z,20.60
2022-08-29T23:05:09.786Z,20.50
2022-08-29T23:07:42.997Z,20.50
2022-08-29T23:10:16.175Z,20.40
2022-08-29T23:12:50.529Z,20.30
2022-08-29T23:15:23.374Z,20.20
2022-08-29T23:17:56.641Z,20.20
2022-08-29T23:20:29.711Z,20.10
2022-08-29T23:23:02.510Z,20.10
2022-08-29T23:25:36.498Z,20.00
2022-08-29T23:28:09.322Z,19.90
2022-08-29T23:30:44.336Z,19.80
2022-08-29T23:33:18.127Z,19.70
2022-08-29T23:35:51.121Z,19.60
2022-08-29T23:38:23.904Z,19.50
2022-08-29T23:40:58.155Z,19.50
2022-08-29T23:43:36.223Z,19.40
2022-08-29T23:46:10.220Z,19.40
2022-08-29T23:48:43.575Z,19.40
2022-08-29T23:51:16.650Z,19.30
2022-08-29T23:53:49.544Z,19.30
2022-08-29T23:56:22.503Z,19.20
2022-08-29T23:58:56.717Z,19.20
